sensor_id;sensor_type;location;lat;lon;timestamp;P1;durP1;ratioP1;P2;durP2;ratioP2
20531;SDS011;10424;52.102;8.084;2023-03-01T00:01:28;41.57;;;17.00;;
20531;SDS011;10424;52.102;8.084;2023-03-01T00:03:56;22.57;;;10.37;;
20531;SDS011;10424;52.102;8.084;2023-03-01T00:06:24;36.57;;;15.30;;
20531;SDS011;10424;52.102;8.084;2023-03-01T00:08:52;45.00;;;18.90;;
20531;SDS011;10424;52.102;8.084;2023-03-01T00:11:20;21.77;;;10.77;;
20531;SDS011;10424;52.102;8.084;2023-03-01T00:13:48;21.10;;;10.30;;
20531;SDS011;10424;52.102;8.084;2023-03-01T00:16:18;16.83;;;8.73;;
20531;SDS011;10424;52.102;8.084;2023-03-01T00:18:45;17.30;;;7.97;;
20531;SDS011;10424;52.102;8.084;2023-03-01T00:21:12;14.93;;;8.00;;
20531;SDS011;10424;52.102;8.084;2023-03-01T00:23:40;21.37;;;8.83;;
20531;SDS011;10424;52.102;8.084;2023-03-01T00:26:08;15.43;;;7.53;;
20531;SDS011;10424;52.102;8.084;2023-03-01T00:28:36;13.13;;;7.23;;
20531;SDS011;10424;52.102;8.084;2023-03-01T00:31:03;17.03;;;8.50;;
20531;SDS011;10424;52.102;8.084;2023-03-01T00:33:32;14.83;;;8.03;;
20531;SDS011;10424;52.102;8.084;2023-03-01T00:36:00;14.87;;;7.47;;
20531;SDS011;10424;52.102;8.084;2023-03-01T00:38:27;16.50;;;7.53;;
20531;SDS011;10424;52.102;8.084;2023-03-01T00:40:54;16.70;;;7.43;;
20531;SDS011;10424;52.102;8.084;2023-03-01T00:43:22;17.03;;;7.73;;
20531;SDS011;10424;52.102;8.084;2023-03-01T00:45:49;15.77;;;7.33;;
20531;SDS011;10424;52.102;8.084;2023-03-01T00:48:16;13.17;;;7.50;;
20531;SDS011;10424;52.102;8.084;2023-03-01T00:50:45;11.47;;;6.33;;
20531;SDS011;10424;52.102;8.084;2023-03-01T00:53:12;12.37;;;6.43;;
20531;SDS011;10424;52.102;8.084;2023-03-01T00:55:39;15.70;;;6.33;;
20531;SDS011;10424;52.102;8.084;2023-03-01T00:58:06;10.73;;;5.93;;
20531;SDS011;10424;52.102;8.084;2023-03-01T01:00:34;14.77;;;6.30;;
20531;SDS011;10424;52.102;8.084;2023-03-01T01:03:01;13.07;;;6.20;;
20531;SDS011;10424;52.102;8.084;2023-03-01T01:05:28;13.80;;;6.50;;
20531;SDS011;10424;52.102;8.084;2023-03-01T01:07:57;11.90;;;6.00;;
20531;SDS011;10424;52.102;8.084;2023-03-01T01:10:24;12.07;;;5.67;;
20531;SDS011;10424;52.102;8.084;2023-03-01T01:12:51;11.47;;;5.70;;
20531;SDS011;10424;52.102;8.084;2023-03-01T01:15:18;10.67;;;5.67;;
20531;SDS011;10424;52.102;8.084;2023-03-01T01:17:46;13.30;;;5.70;;
20531;SDS011;10424;52.102;8.084;2023-03-01T01:20:13;11.00;;;5.53;;
20531;SDS011;10424;52.102;8.084;2023-03-01T01:22:40;10.23;;;5.63;;
20531;SDS011;10424;52.102;8.084;2023-03-01T01:25:09;9.80;;;5.03;;
20531;SDS011;10424;52.102;8.084;2023-03-01T01:27:36;11.83;;;5.60;;
20531;SDS011;10424;52.102;8.084;2023-03-01T01:30:04;10.67;;;5.77;;
20531;SDS011;10424;52.102;8.084;2023-03-01T01:32:32;10.70;;;5.60;;
20531;SDS011;10424;52.102;8.084;2023-03-01T01:34:59;12.80;;;6.03;;
20531;SDS011;10424;52.102;8.084;2023-03-01T01:37:26;11.97;;;6.10;;
20531;SDS011;10424;52.102;8.084;2023-03-01T01:39:56;12.27;;;6.37;;
20531;SDS011;10424;52.102;8.084;2023-03-01T01:42:25;10.30;;;5.83;;
20531;SDS011;10424;52.102;8.084;2023-03-01T01:47:35;10.73;;;5.57;;
20531;SDS011;10424;52.102;8.084;2023-03-01T01:50:02;11.33;;;5.63;;
20531;SDS011;10424;52.102;8.084;2023-03-01T01:52:31;11.27;;;6.00;;
20531;SDS011;10424;52.102;8.084;2023-03-01T01:54:59;10.77;;;5.80;;
20531;SDS011;10424;52.102;8.084;2023-03-01T01:57:31;11.33;;;5.83;;
20531;SDS011;10424;52.102;8.084;2023-03-01T02:00:01;13.03;;;5.83;;
20531;SDS011;10424;52.102;8.084;2023-03-01T02:02:29;10.63;;;5.53;;
20531;SDS011;10424;52.102;8.084;2023-03-01T02:04:59;11.70;;;5.70;;
20531;SDS011;10424;52.102;8.084;2023-03-01T02:07:29;10.57;;;5.80;;
20531;SDS011;10424;52.102;8.084;2023-03-01T02:09:57;12.37;;;6.27;;
20531;SDS011;10424;52.102;8.084;2023-03-01T02:12:25;12.33;;;5.40;;
20531;SDS011;10424;52.102;8.084;2023-03-01T02:14:54;11.63;;;5.83;;
20531;SDS011;10424;52.102;8.084;2023-03-01T02:17:21;11.53;;;5.73;;
20531;SDS011;10424;52.102;8.084;2023-03-01T02:19:52;12.13;;;5.67;;
20531;SDS011;10424;52.102;8.084;2023-03-01T02:22:20;9.77;;;5.03;;
20531;SDS011;10424;52.102;8.084;2023-03-01T02:24:53;10.83;;;5.37;;
20531;SDS011;10424;52.102;8.084;2023-03-01T02:27:23;10.73;;;5.17;;
20531;SDS011;10424;52.102;8.084;2023-03-01T02:29:54;11.67;;;5.57;;
20531;SDS011;10424;52.102;8.084;2023-03-01T02:32:21;12.20;;;5.70;;
20531;SDS011;10424;52.102;8.084;2023-03-01T02:34:50;10.27;;;5.40;;
20531;SDS011;10424;52.102;8.084;2023-03-01T02:37:18;9.00;;;5.30;;
20531;SDS011;10424;52.102;8.084;2023-03-01T02:39:50;11.30;;;5.27;;
20531;SDS011;10424;52.102;8.084;2023-03-01T02:42:21;11.30;;;5.47;;
20531;SDS011;10424;52.102;8.084;2023-03-01T02:44:50;12.73;;;5.67;;
20531;SDS011;10424;52.102;8.084;2023-03-01T02:47:20;10.30;;;5.47;;
20531;SDS011;10424;52.102;8.084;2023-03-01T02:49:47;11.23;;;5.70;;
20531;SDS011;10424;52.102;8.084;2023-03-01T02:52:21;11.07;;;5.63;;
20531;SDS011;10424;52.102;8.084;2023-03-01T02:54:51;10.57;;;5.90;;
20531;SDS011;10424;52.102;8.084;2023-03-01T02:57:21;9.97;;;5.57;;
20531;SDS011;10424;52.102;8.084;2023-03-01T02:59:48;11.43;;;5.70;;
20531;SDS011;10424;52.102;8.084;2023-03-01T03:02:20;11.63;;;6.10;;
20531;SDS011;10424;52.102;8.084;2023-03-01T03:05:01;11.13;;;6.07;;
20531;SDS011;10424;52.102;8.084;2023-03-01T03:07:28;12.17;;;5.90;;
20531;SDS011;10424;52.102;8.084;2023-03-01T03:09:55;13.27;;;6.40;;
20531;SDS011;10424;52.102;8.084;2023-03-01T03:12:23;14.10;;;6.83;;
20531;SDS011;10424;52.102;8.084;2023-03-01T03:14:50;14.63;;;6.80;;
20531;SDS011;10424;52.102;8.084;2023-03-01T03:17:17;16.23;;;6.30;;
20531;SDS011;10424;52.102;8.084;2023-03-01T03:19:46;13.43;;;6.30;;
20531;SDS011;10424;52.102;8.084;2023-03-01T03:22:13;11.27;;;5.80;;
20531;SDS011;10424;52.102;8.084;2023-03-01T03:24:41;11.90;;;5.83;;
20531;SDS011;10424;52.102;8.084;2023-03-01T03:27:08;13.37;;;5.77;;
20531;SDS011;10424;52.102;8.084;2023-03-01T03:29:36;13.93;;;6.13;;
20531;SDS011;10424;52.102;8.084;2023-03-01T03:32:03;11.77;;;6.30;;
20531;SDS011;10424;52.102;8.084;2023-03-01T03:34:30;12.10;;;6.20;;
20531;SDS011;10424;52.102;8.084;2023-03-01T03:36:59;10.67;;;5.83;;
20531;SDS011;10424;52.102;8.084;2023-03-01T03:39:26;11.73;;;5.93;;
20531;SDS011;10424;52.102;8.084;2023-03-01T03:41:54;13.77;;;5.70;;
20531;SDS011;10424;52.102;8.084;2023-03-01T03:44:21;11.20;;;5.67;;
20531;SDS011;10424;52.102;8.084;2023-03-01T03:46:48;11.90;;;5.67;;
20531;SDS011;10424;52.102;8.084;2023-03-01T03:49:16;13.17;;;6.23;;
20531;SDS011;10424;52.102;8.084;2023-03-01T03:51:44;13.07;;;6.87;;
20531;SDS011;10424;52.102;8.084;2023-03-01T03:54:13;11.47;;;6.10;;
20531;SDS011;10424;52.102;8.084;2023-03-01T03:56:42;12.37;;;5.83;;
20531;SDS011;10424;52.102;8.084;2023-03-01T03:59:09;11.63;;;5.93;;
20531;SDS011;10424;52.102;8.084;2023-03-01T04:01:36;11.53;;;5.80;;
20531;SDS011;10424;52.102;8.084;2023-03-01T04:04:04;12.63;;;6.00;;
20531;SDS011;10424;52.102;8.084;2023-03-01T04:06:32;11.17;;;5.83;;
20531;SDS011;10424;52.102;8.084;2023-03-01T04:09:00;11.00;;;5.70;;
20531;SDS011;10424;52.102;8.084;2023-03-01T04:11:29;10.53;;;6.00;;
20531;SDS011;10424;52.102;8.084;2023-03-01T04:13:57;10.33;;;5.77;;
20531;SDS011;10424;52.102;8.084;2023-03-01T04:16:25;12.83;;;6.10;;
20531;SDS011;10424;52.102;8.084;2023-03-01T04:18:52;12.37;;;6.17;;
20531;SDS011;10424;52.102;8.084;2023-03-01T04:21:20;10.10;;;6.07;;
20531;SDS011;10424;52.102;8.084;2023-03-01T04:23:48;12.37;;;6.30;;
20531;SDS011;10424;52.102;8.084;2023-03-01T04:26:17;11.83;;;6.03;;
20531;SDS011;10424;52.102;8.084;2023-03-01T04:28:46;11.77;;;6.23;;
20531;SDS011;10424;52.102;8.084;2023-03-01T04:31:16;13.03;;;6.13;;
20531;SDS011;10424;52.102;8.084;2023-03-01T04:33:46;11.23;;;5.93;;
20531;SDS011;10424;52.102;8.084;2023-03-01T04:36:14;11.73;;;6.17;;
20531;SDS011;10424;52.102;8.084;2023-03-01T04:38:42;10.83;;;5.60;;
20531;SDS011;10424;52.102;8.084;2023-03-01T04:41:12;12.37;;;6.03;;
20531;SDS011;10424;52.102;8.084;2023-03-01T04:43:40;12.37;;;5.93;;
20531;SDS011;10424;52.102;8.084;2023-03-01T04:46:09;13.93;;;6.67;;
20531;SDS011;10424;52.102;8.084;2023-03-01T04:48:38;12.27;;;6.63;;
20531;SDS011;10424;52.102;8.084;2023-03-01T04:51:05;13.70;;;7.00;;
20531;SDS011;10424;52.102;8.084;2023-03-01T04:53:33;13.77;;;6.93;;
20531;SDS011;10424;52.102;8.084;2023-03-01T04:56:01;12.97;;;6.63;;
20531;SDS011;10424;52.102;8.084;2023-03-01T04:58:29;12.90;;;6.47;;
20531;SDS011;10424;52.102;8.084;2023-03-01T05:00:56;14.33;;;6.57;;
20531;SDS011;10424;52.102;8.084;2023-03-01T05:03:25;16.20;;;6.50;;
20531;SDS011;10424;52.102;8.084;2023-03-01T05:05:53;14.63;;;6.83;;
20531;SDS011;10424;52.102;8.084;2023-03-01T05:08:20;14.53;;;6.80;;
20531;SDS011;10424;52.102;8.084;2023-03-01T05:10:48;13.17;;;6.37;;
20531;SDS011;10424;52.102;8.084;2023-03-01T05:13:16;12.13;;;6.27;;
20531;SDS011;10424;52.102;8.084;2023-03-01T05:15:47;13.60;;;7.00;;
20531;SDS011;10424;52.102;8.084;2023-03-01T05:18:15;13.07;;;6.27;;
20531;SDS011;10424;52.102;8.084;2023-03-01T05:20:43;11.07;;;6.10;;
20531;SDS011;10424;52.102;8.084;2023-03-01T05:23:11;12.60;;;6.50;;
20531;SDS011;10424;52.102;8.084;2023-03-01T05:25:38;12.30;;;6.17;;
20531;SDS011;10424;52.102;8.084;2023-03-01T05:28:07;12.83;;;6.60;;
20531;SDS011;10424;52.102;8.084;2023-03-01T05:33:11;13.87;;;6.57;;
20531;SDS011;10424;52.102;8.084;2023-03-01T05:35:39;12.37;;;6.50;;
20531;SDS011;10424;52.102;8.084;2023-03-01T05:38:08;12.30;;;6.10;;
20531;SDS011;10424;52.102;8.084;2023-03-01T05:40:38;13.17;;;6.80;;
20531;SDS011;10424;52.102;8.084;2023-03-01T05:43:05;12.37;;;6.27;;
20531;SDS011;10424;52.102;8.084;2023-03-01T05:45:33;13.17;;;6.10;;
20531;SDS011;10424;52.102;8.084;2023-03-01T05:48:02;12.07;;;5.97;;
20531;SDS011;10424;52.102;8.084;2023-03-01T05:50:31;12.83;;;6.37;;
20531;SDS011;10424;52.102;8.084;2023-03-01T05:52:59;15.67;;;7.27;;
20531;SDS011;10424;52.102;8.084;2023-03-01T05:55:29;12.47;;;6.53;;
20531;SDS011;10424;52.102;8.084;2023-03-01T05:57:58;13.47;;;7.30;;
20531;SDS011;10424;52.102;8.084;2023-03-01T06:00:25;14.63;;;6.83;;
20531;SDS011;10424;52.102;8.084;2023-03-01T06:02:53;14.40;;;6.60;;
20531;SDS011;10424;52.102;8.084;2023-03-01T06:05:20;15.50;;;6.70;;
20531;SDS011;10424;52.102;8.084;2023-03-01T06:07:48;14.37;;;6.47;;
20531;SDS011;10424;52.102;8.084;2023-03-01T06:10:16;15.03;;;7.10;;
20531;SDS011;10424;52.102;8.084;2023-03-01T06:12:45;14.60;;;6.73;;
20531;SDS011;10424;52.102;8.084;2023-03-01T06:15:13;15.43;;;6.67;;
20531;SDS011;10424;52.102;8.084;2023-03-01T06:17:41;16.50;;;7.10;;
20531;SDS011;10424;52.102;8.084;2023-03-01T06:20:09;15.10;;;6.30;;
20531;SDS011;10424;52.102;8.084;2023-03-01T06:22:37;15.80;;;6.80;;
20531;SDS011;10424;52.102;8.084;2023-03-01T06:25:04;13.90;;;6.50;;
20531;SDS011;10424;52.102;8.084;2023-03-01T06:27:32;17.33;;;7.13;;
20531;SDS011;10424;52.102;8.084;2023-03-01T06:30:01;14.60;;;6.57;;
20531;SDS011;10424;52.102;8.084;2023-03-01T06:32:28;13.50;;;6.27;;
20531;SDS011;10424;52.102;8.084;2023-03-01T06:34:56;13.00;;;6.50;;
20531;SDS011;10424;52.102;8.084;2023-03-01T06:37:24;15.50;;;6.67;;
20531;SDS011;10424;52.102;8.084;2023-03-01T06:39:51;20.27;;;10.20;;
20531;SDS011;10424;52.102;8.084;2023-03-01T06:42:19;83.07;;;30.30;;
20531;SDS011;10424;52.102;8.084;2023-03-01T06:44:46;34.57;;;15.40;;
20531;SDS011;10424;52.102;8.084;2023-03-01T06:47:15;19.40;;;9.70;;
20531;SDS011;10424;52.102;8.084;2023-03-01T06:49:42;14.07;;;7.70;;
20531;SDS011;10424;52.102;8.084;2023-03-01T06:52:10;15.80;;;8.47;;
20531;SDS011;10424;52.102;8.084;2023-03-01T06:54:37;25.60;;;13.40;;
20531;SDS011;10424;52.102;8.084;2023-03-01T06:57:04;18.17;;;9.10;;
20531;SDS011;10424;52.102;8.084;2023-03-01T06:59:31;17.23;;;9.20;;
20531;SDS011;10424;52.102;8.084;2023-03-01T07:01:59;15.40;;;7.00;;
20531;SDS011;10424;52.102;8.084;2023-03-01T07:04:27;12.67;;;6.00;;
20531;SDS011;10424;52.102;8.084;2023-03-01T07:06:55;13.43;;;6.20;;
20531;SDS011;10424;52.102;8.084;2023-03-01T07:09:23;12.40;;;6.10;;
20531;SDS011;10424;52.102;8.084;2023-03-01T07:11:50;11.73;;;5.70;;
20531;SDS011;10424;52.102;8.084;2023-03-01T07:14:17;17.27;;;5.90;;
20531;SDS011;10424;52.102;8.084;2023-03-01T07:16:45;10.63;;;5.70;;
20531;SDS011;10424;52.102;8.084;2023-03-01T07:19:12;8.63;;;5.17;;
20531;SDS011;10424;52.102;8.084;2023-03-01T07:21:41;10.70;;;5.50;;
20531;SDS011;10424;52.102;8.084;2023-03-01T07:24:08;10.17;;;5.20;;
20531;SDS011;10424;52.102;8.084;2023-03-01T07:26:36;8.23;;;4.80;;
20531;SDS011;10424;52.102;8.084;2023-03-01T07:29:04;11.47;;;5.00;;
20531;SDS011;10424;52.102;8.084;2023-03-01T07:31:32;9.90;;;5.30;;
20531;SDS011;10424;52.102;8.084;2023-03-01T07:33:59;11.07;;;5.57;;
20531;SDS011;10424;52.102;8.084;2023-03-01T07:36:27;13.40;;;5.50;;
20531;SDS011;10424;52.102;8.084;2023-03-01T07:38:55;15.38;;;8.80;;
20531;SDS011;10424;52.102;8.084;2023-03-01T07:41:23;22.10;;;7.35;;
20531;SDS011;10424;52.102;8.084;2023-03-01T07:43:50;14.48;;;6.80;;
20531;SDS011;10424;52.102;8.084;2023-03-01T07:46:18;21.88;;;8.98;;
20531;SDS011;10424;52.102;8.084;2023-03-01T07:48:45;14.65;;;7.32;;
20531;SDS011;10424;52.102;8.084;2023-03-01T07:51:12;15.07;;;8.35;;
20531;SDS011;10424;52.102;8.084;2023-03-01T07:53:40;16.40;;;9.40;;
20531;SDS011;10424;52.102;8.084;2023-03-01T07:56:09;22.45;;;14.50;;
20531;SDS011;10424;52.102;8.084;2023-03-01T07:58:37;14.57;;;8.63;;
20531;SDS011;10424;52.102;8.084;2023-03-01T08:01:05;15.38;;;8.32;;
20531;SDS011;10424;52.102;8.084;2023-03-01T08:03:33;17.30;;;9.80;;
20531;SDS011;10424;52.102;8.084;2023-03-01T08:06:01;17.73;;;9.48;;
20531;SDS011;10424;52.102;8.084;2023-03-01T08:08:28;20.60;;;12.52;;
20531;SDS011;10424;52.102;8.084;2023-03-01T08:10:56;17.88;;;10.50;;
20531;SDS011;10424;52.102;8.084;2023-03-01T08:13:25;14.30;;;9.05;;
20531;SDS011;10424;52.102;8.084;2023-03-01T08:15:52;18.98;;;10.50;;
20531;SDS011;10424;52.102;8.084;2023-03-01T08:18:20;18.80;;;10.88;;
20531;SDS011;10424;52.102;8.084;2023-03-01T08:20:47;14.32;;;9.40;;
20531;SDS011;10424;52.102;8.084;2023-03-01T08:23:15;14.45;;;9.27;;
20531;SDS011;10424;52.102;8.084;2023-03-01T08:25:42;14.60;;;9.15;;
20531;SDS011;10424;52.102;8.084;2023-03-01T08:28:09;13.48;;;9.13;;
20531;SDS011;10424;52.102;8.084;2023-03-01T08:30:38;26.38;;;18.48;;
20531;SDS011;10424;52.102;8.084;2023-03-01T08:33:05;16.95;;;9.38;;
20531;SDS011;10424;52.102;8.084;2023-03-01T08:35:32;24.20;;;16.02;;
20531;SDS011;10424;52.102;8.084;2023-03-01T08:37:59;16.75;;;11.40;;
20531;SDS011;10424;52.102;8.084;2023-03-01T08:40:27;14.90;;;9.35;;
20531;SDS011;10424;52.102;8.084;2023-03-01T08:42:54;13.65;;;8.57;;
20531;SDS011;10424;52.102;8.084;2023-03-01T08:45:21;15.10;;;8.80;;
20531;SDS011;10424;52.102;8.084;2023-03-01T08:47:53;14.93;;;9.30;;
20531;SDS011;10424;52.102;8.084;2023-03-01T08:50:20;14.63;;;9.35;;
20531;SDS011;10424;52.102;8.084;2023-03-01T08:52:49;17.25;;;8.68;;
20531;SDS011;10424;52.102;8.084;2023-03-01T08:55:17;14.70;;;9.07;;
20531;SDS011;10424;52.102;8.084;2023-03-01T08:57:44;14.25;;;8.50;;
20531;SDS011;10424;52.102;8.084;2023-03-01T09:00:11;14.80;;;8.57;;
20531;SDS011;10424;52.102;8.084;2023-03-01T09:02:40;11.90;;;8.05;;
20531;SDS011;10424;52.102;8.084;2023-03-01T09:05:08;12.93;;;8.20;;
20531;SDS011;10424;52.102;8.084;2023-03-01T09:07:36;11.88;;;8.00;;
20531;SDS011;10424;52.102;8.084;2023-03-01T09:10:03;11.30;;;7.38;;
20531;SDS011;10424;52.102;8.084;2023-03-01T09:12:31;9.35;;;6.82;;
20531;SDS011;10424;52.102;8.084;2023-03-01T09:14:58;11.73;;;7.43;;
20531;SDS011;10424;52.102;8.084;2023-03-01T09:17:25;13.52;;;7.65;;
20531;SDS011;10424;52.102;8.084;2023-03-01T09:19:53;10.38;;;7.25;;
20531;SDS011;10424;52.102;8.084;2023-03-01T09:22:21;10.27;;;7.00;;
20531;SDS011;10424;52.102;8.084;2023-03-01T09:24:48;12.20;;;7.15;;
20531;SDS011;10424;52.102;8.084;2023-03-01T09:27:16;11.32;;;6.80;;
20531;SDS011;10424;52.102;8.084;2023-03-01T09:29:44;13.88;;;6.97;;
20531;SDS011;10424;52.102;8.084;2023-03-01T09:32:12;12.07;;;7.32;;
20531;SDS011;10424;52.102;8.084;2023-03-01T09:34:39;10.18;;;6.97;;
20531;SDS011;10424;52.102;8.084;2023-03-01T09:37:21;9.32;;;6.95;;
20531;SDS011;10424;52.102;8.084;2023-03-01T09:39:49;11.10;;;7.10;;
20531;SDS011;10424;52.102;8.084;2023-03-01T09:42:16;12.55;;;7.20;;
20531;SDS011;10424;52.102;8.084;2023-03-01T09:44:45;12.80;;;7.40;;
20531;SDS011;10424;52.102;8.084;2023-03-01T09:47:16;10.73;;;6.97;;
20531;SDS011;10424;52.102;8.084;2023-03-01T09:49:45;10.80;;;6.97;;
20531;SDS011;10424;52.102;8.084;2023-03-01T09:52:18;10.38;;;7.07;;
20531;SDS011;10424;52.102;8.084;2023-03-01T09:54:51;14.73;;;7.00;;
20531;SDS011;10424;52.102;8.084;2023-03-01T09:57:24;10.48;;;6.55;;
20531;SDS011;10424;52.102;8.084;2023-03-01T09:59:57;9.75;;;6.60;;
20531;SDS011;10424;52.102;8.084;2023-03-01T10:02:30;10.38;;;6.65;;
20531;SDS011;10424;52.102;8.084;2023-03-01T10:05:03;10.07;;;6.65;;
20531;SDS011;10424;52.102;8.084;2023-03-01T10:07:32;10.80;;;6.85;;
20531;SDS011;10424;52.102;8.084;2023-03-01T10:10:06;10.95;;;7.00;;
20531;SDS011;10424;52.102;8.084;2023-03-01T10:12:35;10.38;;;6.60;;
20531;SDS011;10424;52.102;8.084;2023-03-01T10:15:05;9.35;;;6.43;;
20531;SDS011;10424;52.102;8.084;2023-03-01T10:17:37;12.40;;;7.00;;
20531;SDS011;10424;52.102;8.084;2023-03-01T10:20:13;12.02;;;7.18;;
20531;SDS011;10424;52.102;8.084;2023-03-01T10:22:41;10.52;;;6.70;;
20531;SDS011;10424;52.102;8.084;2023-03-01T10:25:14;10.93;;;7.60;;
20531;SDS011;10424;52.102;8.084;2023-03-01T10:27:43;7.82;;;5.75;;
20531;SDS011;10424;52.102;8.084;2023-03-01T10:30:13;11.50;;;6.90;;
20531;SDS011;10424;52.102;8.084;2023-03-01T10:32:45;11.23;;;7.05;;
20531;SDS011;10424;52.102;8.084;2023-03-01T10:35:18;10.35;;;7.75;;
20531;SDS011;10424;52.102;8.084;2023-03-01T10:37:56;11.63;;;8.32;;
20531;SDS011;10424;52.102;8.084;2023-03-01T10:40:25;9.07;;;6.22;;
20531;SDS011;10424;52.102;8.084;2023-03-01T10:42:52;10.07;;;6.32;;
20531;SDS011;10424;52.102;8.084;2023-03-01T10:45:27;11.32;;;6.93;;
20531;SDS011;10424;52.102;8.084;2023-03-01T10:48:03;8.45;;;6.38;;
20531;SDS011;10424;52.102;8.084;2023-03-01T10:50:31;13.30;;;7.05;;
20531;SDS011;10424;52.102;8.084;2023-03-01T10:52:59;12.13;;;7.55;;
20531;SDS011;10424;52.102;8.084;2023-03-01T10:55:30;10.65;;;6.55;;
20531;SDS011;10424;52.102;8.084;2023-03-01T10:58:09;10.80;;;6.53;;
20531;SDS011;10424;52.102;8.084;2023-03-01T11:00:48;23.50;;;10.05;;
20531;SDS011;10424;52.102;8.084;2023-03-01T11:03:17;26.45;;;17.77;;
20531;SDS011;10424;52.102;8.084;2023-03-01T11:05:52;9.25;;;5.78;;
20531;SDS011;10424;52.102;8.084;2023-03-01T11:08:29;10.05;;;5.95;;
20531;SDS011;10424;52.102;8.084;2023-03-01T11:11:05;9.82;;;6.30;;
20531;SDS011;10424;52.102;8.084;2023-03-01T11:13:33;10.02;;;6.07;;
20531;SDS011;10424;52.102;8.084;2023-03-01T11:16:02;9.73;;;6.47;;
20531;SDS011;10424;52.102;8.084;2023-03-01T11:18:30;9.18;;;6.68;;
20531;SDS011;10424;52.102;8.084;2023-03-01T11:20:58;11.60;;;6.95;;
20531;SDS011;10424;52.102;8.084;2023-03-01T11:23:27;11.32;;;6.72;;
20531;SDS011;10424;52.102;8.084;2023-03-01T11:25:55;13.77;;;7.85;;
20531;SDS011;10424;52.102;8.084;2023-03-01T11:28:24;8.82;;;5.80;;
20531;SDS011;10424;52.102;8.084;2023-03-01T11:30:53;10.63;;;6.22;;
20531;SDS011;10424;52.102;8.084;2023-03-01T11:33:24;7.70;;;5.82;;
20531;SDS011;10424;52.102;8.084;2023-03-01T11:36:00;7.97;;;5.47;;
20531;SDS011;10424;52.102;8.084;2023-03-01T11:38:28;7.55;;;5.38;;
20531;SDS011;10424;52.102;8.084;2023-03-01T11:40:58;7.85;;;5.65;;
20531;SDS011;10424;52.102;8.084;2023-03-01T11:43:32;9.30;;;5.57;;
20531;SDS011;10424;52.102;8.084;2023-03-01T11:46:06;7.45;;;5.22;;
20531;SDS011;10424;52.102;8.084;2023-03-01T11:48:38;7.50;;;5.38;;
20531;SDS011;10424;52.102;8.084;2023-03-01T11:51:12;9.18;;;5.38;;
20531;SDS011;10424;52.102;8.084;2023-03-01T11:53:51;6.70;;;5.00;;
20531;SDS011;10424;52.102;8.084;2023-03-01T11:56:22;7.65;;;5.43;;
20531;SDS011;10424;52.102;8.084;2023-03-01T11:59:01;10.82;;;5.93;;
20531;SDS011;10424;52.102;8.084;2023-03-01T12:01:36;9.43;;;5.30;;
20531;SDS011;10424;52.102;8.084;2023-03-01T12:04:10;11.20;;;5.60;;
20531;SDS011;10424;52.102;8.084;2023-03-01T12:06:45;8.90;;;5.82;;
20531;SDS011;10424;52.102;8.084;2023-03-01T12:09:17;7.28;;;5.63;;
20531;SDS011;10424;52.102;8.084;2023-03-01T12:11:52;9.02;;;6.95;;
20531;SDS011;10424;52.102;8.084;2023-03-01T12:14:36;9.18;;;6.20;;
20531;SDS011;10424;52.102;8.084;2023-03-01T12:17:11;11.60;;;7.50;;
20531;SDS011;10424;52.102;8.084;2023-03-01T12:22:28;7.93;;;5.90;;
20531;SDS011;10424;52.102;8.084;2023-03-01T12:27:51;12.80;;;8.65;;
20531;SDS011;10424;52.102;8.084;2023-03-01T12:30:25;9.23;;;6.43;;
20531;SDS011;10424;52.102;8.084;2023-03-01T12:32:57;9.20;;;6.22;;
20531;SDS011;10424;52.102;8.084;2023-03-01T12:35:33;7.90;;;5.70;;
20531;SDS011;10424;52.102;8.084;2023-03-01T12:38:06;10.85;;;7.65;;
20531;SDS011;10424;52.102;8.084;2023-03-01T12:40:43;7.18;;;5.53;;
20531;SDS011;10424;52.102;8.084;2023-03-01T12:43:16;9.00;;;5.68;;
20531;SDS011;10424;52.102;8.084;2023-03-01T12:45:53;7.97;;;6.05;;
20531;SDS011;10424;52.102;8.084;2023-03-01T12:48:24;8.15;;;6.22;;
20531;SDS011;10424;52.102;8.084;2023-03-01T12:50:57;8.02;;;6.10;;
20531;SDS011;10424;52.102;8.084;2023-03-01T12:53:25;8.45;;;6.18;;
20531;SDS011;10424;52.102;8.084;2023-03-01T12:55:53;8.93;;;6.30;;
20531;SDS011;10424;52.102;8.084;2023-03-01T12:58:24;10.02;;;6.50;;
20531;SDS011;10424;52.102;8.084;2023-03-01T13:01:00;9.30;;;5.90;;
20531;SDS011;10424;52.102;8.084;2023-03-01T13:03:32;8.82;;;6.05;;
20531;SDS011;10424;52.102;8.084;2023-03-01T13:06:03;9.93;;;7.20;;
20531;SDS011;10424;52.102;8.084;2023-03-01T13:08:35;7.35;;;5.50;;
20531;SDS011;10424;52.102;8.084;2023-03-01T13:11:03;7.22;;;5.70;;
20531;SDS011;10424;52.102;8.084;2023-03-01T13:13:31;8.10;;;5.82;;
20531;SDS011;10424;52.102;8.084;2023-03-01T13:16:11;11.27;;;5.85;;
20531;SDS011;10424;52.102;8.084;2023-03-01T13:18:46;8.48;;;5.50;;
20531;SDS011;10424;52.102;8.084;2023-03-01T13:21:13;8.45;;;5.70;;
20531;SDS011;10424;52.102;8.084;2023-03-01T13:23:56;7.95;;;5.60;;
20531;SDS011;10424;52.102;8.084;2023-03-01T13:26:23;8.00;;;6.03;;
20531;SDS011;10424;52.102;8.084;2023-03-01T13:28:51;9.40;;;5.95;;
20531;SDS011;10424;52.102;8.084;2023-03-01T13:34:07;10.20;;;5.28;;
20531;SDS011;10424;52.102;8.084;2023-03-01T13:37:10;7.43;;;5.57;;
20531;SDS011;10424;52.102;8.084;2023-03-01T13:39:39;8.82;;;5.70;;
20531;SDS011;10424;52.102;8.084;2023-03-01T13:44:48;14.20;;;7.70;;
20531;SDS011;10424;52.102;8.084;2023-03-01T13:47:16;7.55;;;5.15;;
20531;SDS011;10424;52.102;8.084;2023-03-01T13:49:46;6.35;;;4.38;;
20531;SDS011;10424;52.102;8.084;2023-03-01T13:52:26;7.65;;;4.75;;
20531;SDS011;10424;52.102;8.084;2023-03-01T13:54:57;10.00;;;4.93;;
20531;SDS011;10424;52.102;8.084;2023-03-01T13:57:26;8.60;;;5.28;;
20531;SDS011;10424;52.102;8.084;2023-03-01T13:59:56;7.80;;;5.03;;
20531;SDS011;10424;52.102;8.084;2023-03-01T14:02:23;7.60;;;4.90;;
20531;SDS011;10424;52.102;8.084;2023-03-01T14:04:56;7.45;;;5.30;;
20531;SDS011;10424;52.102;8.084;2023-03-01T14:07:25;8.20;;;4.82;;
20531;SDS011;10424;52.102;8.084;2023-03-01T14:09:55;8.52;;;4.43;;
20531;SDS011;10424;52.102;8.084;2023-03-01T14:12:26;7.10;;;4.38;;
20531;SDS011;10424;52.102;8.084;2023-03-01T14:14:56;7.10;;;4.70;;
20531;SDS011;10424;52.102;8.084;2023-03-01T14:20:19;7.07;;;3.72;;
20531;SDS011;10424;52.102;8.084;2023-03-01T14:22:48;6.93;;;4.18;;
20531;SDS011;10424;52.102;8.084;2023-03-01T14:25:19;6.82;;;4.30;;
20531;SDS011;10424;52.102;8.084;2023-03-01T14:27:50;8.10;;;4.18;;
20531;SDS011;10424;52.102;8.084;2023-03-01T14:30:19;6.40;;;4.10;;
20531;SDS011;10424;52.102;8.084;2023-03-01T14:32:55;6.80;;;4.38;;
20531;SDS011;10424;52.102;8.084;2023-03-01T14:35:23;6.82;;;4.50;;
20531;SDS011;10424;52.102;8.084;2023-03-01T14:37:52;6.22;;;4.30;;
20531;SDS011;10424;52.102;8.084;2023-03-01T14:40:22;5.68;;;3.85;;
20531;SDS011;10424;52.102;8.084;2023-03-01T14:42:50;7.22;;;4.22;;
20531;SDS011;10424;52.102;8.084;2023-03-01T14:45:17;6.53;;;4.30;;
20531;SDS011;10424;52.102;8.084;2023-03-01T14:47:45;9.07;;;4.65;;
20531;SDS011;10424;52.102;8.084;2023-03-01T14:50:19;6.68;;;4.65;;
20531;SDS011;10424;52.102;8.084;2023-03-01T14:52:48;6.43;;;4.43;;
20531;SDS011;10424;52.102;8.084;2023-03-01T14:55:19;5.95;;;4.30;;
20531;SDS011;10424;52.102;8.084;2023-03-01T14:57:47;7.95;;;4.68;;
20531;SDS011;10424;52.102;8.084;2023-03-01T15:00:16;8.00;;;4.68;;
20531;SDS011;10424;52.102;8.084;2023-03-01T15:02:45;6.70;;;4.38;;
20531;SDS011;10424;52.102;8.084;2023-03-01T15:05:13;6.95;;;4.30;;
20531;SDS011;10424;52.102;8.084;2023-03-01T15:07:41;8.00;;;4.60;;
20531;SDS011;10424;52.102;8.084;2023-03-01T15:10:16;6.38;;;4.60;;